Time,TemperatureF,DewpointF,PressureIn,WindDirection,WindDirectionDegrees,WindSpeedMPH,WindSpeedGustMPH,Humidity,HourlyPrecipIn,Conditions,Clouds,dailyrainin,SoftwareType,DateUTC
2013-02-16 00:11:00,47.0,40.0,-100.00,South,169,2.0,5.0,77,0.00,,,0.00,,2013-02-16 06:11:00,
2013-02-16 00:21:00,47.0,40.0,-100.00,South,169,2.0,5.0,77,0.00,,,0.00,,2013-02-16 06:21:00,
2013-02-16 00:32:00,47.0,40.0,-100.00,South,169,2.0,5.0,77,0.00,,,0.00,,2013-02-16 06:32:00,
2013-02-16 00:42:00,47.0,40.0,-100.00,South,169,2.0,5.0,77,0.00,,,0.00,,2013-02-16 06:42:00,
2013-02-16 01:11:00,47.0,40.0,-100.00,SE,146,0.0,4.0,77,0.00,,,0.00,,2013-02-16 07:11:00,
2013-02-16 01:21:00,47.0,40.0,-100.00,SE,146,0.0,4.0,77,0.00,,,0.00,,2013-02-16 07:21:00,
2013-02-16 01:31:00,47.0,40.0,-100.00,SE,146,0.0,4.0,77,0.00,,,0.00,,2013-02-16 07:31:00,
2013-02-16 01:42:00,47.0,40.0,-100.00,SE,146,0.0,4.0,77,0.00,,,0.00,,2013-02-16 07:42:00,
2013-02-16 02:11:00,47.0,39.0,-100.00,South,191,2.0,4.0,75,0.00,,,0.00,,2013-02-16 08:11:00,
2013-02-16 02:21:00,47.0,39.0,-100.00,South,191,2.0,4.0,75,0.00,,,0.00,,2013-02-16 08:21:00,
2013-02-16 02:31:00,47.0,39.0,-100.00,South,191,2.0,4.0,75,0.00,,,0.00,,2013-02-16 08:31:00,
2013-02-16 02:42:00,47.0,39.0,-100.00,South,191,2.0,4.0,75,0.00,,,0.00,,2013-02-16 08:42:00,
2013-02-16 03:11:00,47.0,39.0,-100.00,SSW,201,2.0,5.0,74,0.00,,,0.00,,2013-02-16 09:11:00,
2013-02-16 03:21:00,47.0,39.0,-100.00,SSW,201,2.0,5.0,74,0.00,,,0.00,,2013-02-16 09:21:00,
2013-02-16 03:31:00,47.0,39.0,-100.00,SSW,201,2.0,5.0,74,0.00,,,0.00,,2013-02-16 09:31:00,
2013-02-16 03:42:00,47.0,39.0,-100.00,SSW,201,2.0,5.0,74,0.00,,,0.00,,2013-02-16 09:42:00,
2013-02-16 04:11:00,47.0,39.0,-100.00,SSW,209,2.0,5.0,73,0.00,,,0.00,,2013-02-16 10:11:00,
2013-02-16 04:21:00,47.0,39.0,-100.00,SSW,209,2.0,5.0,73,0.00,,,0.00,,2013-02-16 10:21:00,
2013-02-16 04:31:00,47.0,39.0,-100.00,SSW,209,2.0,5.0,73,0.00,,,0.00,,2013-02-16 10:31:00,
2013-02-16 04:42:00,47.0,39.0,-100.00,SSW,209,2.0,5.0,73,0.00,,,0.00,,2013-02-16 10:42:00,
2013-02-16 05:11:00,47.0,37.0,-100.00,SSW,204,2.0,6.0,69,0.00,,,0.00,,2013-02-16 11:11:00,
2013-02-16 05:22:00,47.0,37.0,-100.00,SSW,204,2.0,6.0,69,0.00,,,0.00,,2013-02-16 11:22:00,
2013-02-16 05:32:00,47.0,37.0,-100.00,SSW,204,2.0,6.0,69,0.00,,,0.00,,2013-02-16 11:32:00,
2013-02-16 05:42:00,47.0,37.0,-100.00,SSW,204,2.0,6.0,69,0.00,,,0.00,,2013-02-16 11:42:00,
2013-02-16 06:12:00,45.0,35.0,-100.00,SSW,206,3.0,7.0,69,0.00,,,0.00,,2013-02-16 12:12:00,
2013-02-16 06:22:00,45.0,35.0,-100.00,SSW,206,3.0,7.0,69,0.00,,,0.00,,2013-02-16 12:22:00,
2013-02-16 06:32:00,45.0,35.0,-100.00,SSW,206,3.0,7.0,69,0.00,,,0.00,,2013-02-16 12:32:00,
2013-02-16 06:42:00,45.0,35.0,-100.00,SSW,206,3.0,7.0,69,0.00,,,0.00,,2013-02-16 12:42:00,
2013-02-16 07:12:00,40.0,33.0,-100.00,South,178,2.0,5.0,75,0.00,,,0.00,,2013-02-16 13:12:00,
2013-02-16 07:21:00,40.0,33.0,-100.00,South,178,2.0,5.0,75,0.00,,,0.00,,2013-02-16 13:21:00,
2013-02-16 07:32:00,40.0,33.0,-100.00,South,178,2.0,5.0,75,0.00,,,0.00,,2013-02-16 13:32:00,
2013-02-16 07:41:00,40.0,33.0,-100.00,South,178,2.0,5.0,75,0.00,,,0.00,,2013-02-16 13:41:00,
2013-02-16 08:11:00,44.0,34.0,-100.00,SSW,209,5.0,11.0,68,0.00,,,0.00,,2013-02-16 14:11:00,
2013-02-16 08:21:00,44.0,34.0,-100.00,SSW,209,5.0,11.0,68,0.00,,,0.00,,2013-02-16 14:21:00,
2013-02-16 08:32:00,44.0,34.0,-100.00,SSW,209,5.0,11.0,68,0.00,,,0.00,,2013-02-16 14:32:00,
2013-02-16 08:41:00,44.0,34.0,-100.00,SSW,209,5.0,11.0,68,0.00,,,0.00,,2013-02-16 14:41:00,
2013-02-16 09:11:00,52.0,33.0,-100.00,SSW,213,4.0,11.0,48,0.00,,,0.00,,2013-02-16 15:11:00,
2013-02-16 09:21:00,52.0,33.0,-100.00,SSW,213,4.0,11.0,48,0.00,,,0.00,,2013-02-16 15:21:00,
2013-02-16 09:32:00,52.0,33.0,-100.00,SSW,213,4.0,11.0,48,0.00,,,0.00,,2013-02-16 15:32:00,
2013-02-16 09:42:00,52.0,33.0,-100.00,SSW,213,4.0,11.0,48,0.00,,,0.00,,2013-02-16 15:42:00,
2013-02-16 10:11:00,53.0,27.0,-100.00,WSW,254,5.0,18.0,37,0.00,,,0.00,,2013-02-16 16:11:00,
2013-02-16 10:21:00,53.0,27.0,-100.00,WSW,254,5.0,18.0,37,0.00,,,0.00,,2013-02-16 16:21:00,
2013-02-16 10:32:00,53.0,27.0,-100.00,WSW,254,5.0,18.0,37,0.00,,,0.00,,2013-02-16 16:32:00,
2013-02-16 10:41:00,53.0,27.0,-100.00,WSW,254,5.0,18.0,37,0.00,,,0.00,,2013-02-16 16:41:00,
2013-02-16 11:11:00,53.0,22.0,-100.00,SW,217,7.0,17.0,30,0.00,,,0.00,,2013-02-16 17:11:00,
2013-02-16 11:22:00,53.0,22.0,-100.00,SW,217,7.0,17.0,30,0.00,,,0.00,,2013-02-16 17:22:00,
2013-02-16 11:32:00,53.0,22.0,-100.00,SW,217,7.0,17.0,30,0.00,,,0.00,,2013-02-16 17:32:00,
2013-02-16 11:42:00,53.0,22.0,-100.00,SW,217,7.0,17.0,30,0.00,,,0.00,,2013-02-16 17:42:00,
2013-02-16 12:11:00,56.0,22.0,-100.00,SW,218,7.0,14.0,26,0.00,,,0.00,,2013-02-16 18:11:00,
2013-02-16 12:21:00,56.0,22.0,-100.00,SW,218,7.0,14.0,26,0.00,,,0.00,,2013-02-16 18:21:00,
2013-02-16 12:33:00,56.0,22.0,-100.00,SW,218,7.0,14.0,26,0.00,,,0.00,,2013-02-16 18:33:00,
2013-02-16 12:42:00,56.0,22.0,-100.00,SW,218,7.0,14.0,26,0.00,,,0.00,,2013-02-16 18:42:00,
2013-02-16 13:11:00,57.0,22.0,-100.00,SW,214,5.0,19.0,25,0.00,,,0.00,,2013-02-16 19:11:00,
2013-02-16 13:21:00,57.0,22.0,-100.00,SW,214,5.0,19.0,25,0.00,,,0.00,,2013-02-16 19:21:00,
2013-02-16 13:31:00,57.0,22.0,-100.00,SW,214,5.0,19.0,25,0.00,,,0.00,,2013-02-16 19:31:00,
2013-02-16 13:42:00,57.0,22.0,-100.00,SW,214,5.0,19.0,25,0.00,,,0.00,,2013-02-16 19:42:00,
2013-02-16 14:11:00,58.0,19.0,-100.00,SW,219,5.0,16.0,22,0.00,,,0.00,,2013-02-16 20:11:00,
2013-02-16 14:21:00,58.0,19.0,-100.00,SW,219,5.0,16.0,22,0.00,,,0.00,,2013-02-16 20:21:00,
2013-02-16 14:32:00,58.0,19.0,-100.00,SW,219,5.0,16.0,22,0.00,,,0.00,,2013-02-16 20:32:00,
2013-02-16 14:42:00,58.0,19.0,-100.00,SW,219,5.0,16.0,22,0.00,,,0.00,,2013-02-16 20:42:00,
2013-02-16 15:11:00,57.0,19.0,-100.00,SSW,210,6.0,21.0,22,0.00,,,0.00,,2013-02-16 21:11:00,
2013-02-16 15:21:00,57.0,19.0,-100.00,SSW,210,6.0,21.0,22,0.00,,,0.00,,2013-02-16 21:21:00,
2013-02-16 15:32:00,57.0,19.0,-100.00,SSW,210,6.0,21.0,22,0.00,,,0.00,,2013-02-16 21:32:00,
2013-02-16 15:41:00,57.0,19.0,-100.00,SSW,210,6.0,21.0,22,0.00,,,0.00,,2013-02-16 21:41:00,
2013-02-16 16:11:00,55.0,16.0,-100.00,SSW,202,5.0,16.0,21,0.00,,,0.00,,2013-02-16 22:11:00,
2013-02-16 16:21:00,55.0,16.0,-100.00,SSW,202,5.0,16.0,21,0.00,,,0.00,,2013-02-16 22:21:00,
2013-02-16 16:32:00,55.0,16.0,-100.00,SSW,202,5.0,16.0,21,0.00,,,0.00,,2013-02-16 22:32:00,
2013-02-16 16:42:00,55.0,16.0,-100.00,SSW,202,5.0,16.0,21,0.00,,,0.00,,2013-02-16 22:42:00,
2013-02-16 17:11:00,53.0,15.0,-100.00,SSW,213,6.0,13.0,22,0.00,,,0.00,,2013-02-16 23:11:00,
2013-02-16 17:21:00,53.0,15.0,-100.00,SSW,213,6.0,13.0,22,0.00,,,0.00,,2013-02-16 23:21:00,
2013-02-16 17:31:00,53.0,15.0,-100.00,SSW,213,6.0,13.0,22,0.00,,,0.00,,2013-02-16 23:31:00,
2013-02-16 17:42:00,53.0,15.0,-100.00,SSW,213,6.0,13.0,22,0.00,,,0.00,,2013-02-16 23:42:00,
2013-02-16 18:12:00,45.0,15.0,-100.00,SSW,198,3.0,10.0,29,0.00,,,0.00,,2013-02-17 00:12:00,
2013-02-16 18:22:00,45.0,15.0,-100.00,SSW,198,3.0,10.0,29,0.00,,,0.00,,2013-02-17 00:22:00,
2013-02-16 18:32:00,45.0,15.0,-100.00,SSW,198,3.0,10.0,29,0.00,,,0.00,,2013-02-17 00:32:00,
2013-02-16 18:41:00,45.0,15.0,-100.00,SSW,198,3.0,10.0,29,0.00,,,0.00,,2013-02-17 00:41:00,
2013-02-16 19:11:00,38.0,21.0,-100.00,SE,137,1.0,6.0,49,0.00,,,0.00,,2013-02-17 01:11:00,
2013-02-16 19:21:00,38.0,21.0,-100.00,SE,137,1.0,6.0,49,0.00,,,0.00,,2013-02-17 01:21:00,
2013-02-16 20:11:00,33.0,26.0,-100.00,SE,138,0.0,0.0,76,0.00,,,0.00,,2013-02-17 02:11:00,
2013-02-16 20:21:00,33.0,26.0,-100.00,SE,138,0.0,0.0,76,0.00,,,0.00,,2013-02-17 02:21:00,
2013-02-16 21:11:00,30.0,27.0,-100.00,SSE,150,0.0,0.0,89,-99.99,,,0.00,,2013-02-17 03:11:00,
2013-02-16 21:21:00,30.0,27.0,-100.00,SSE,150,0.0,0.0,89,-99.99,,,0.00,,2013-02-17 03:21:00,
2013-02-16 22:11:00,31.0,26.0,-100.00,SSE,148,0.0,0.0,81,-99.99,,,0.00,,2013-02-17 04:11:00,
2013-02-16 22:21:00,31.0,26.0,-100.00,SSE,148,0.0,0.0,81,-99.99,,,0.00,,2013-02-17 04:21:00,
2013-02-16 22:31:00,31.0,26.0,-100.00,SSE,148,0.0,0.0,81,-99.99,,,0.00,,2013-02-17 04:31:00,
2013-02-16 22:41:00,31.0,26.0,-100.00,SSE,148,0.0,0.0,81,-99.99,,,0.00,,2013-02-17 04:41:00,
2013-02-16 23:12:00,28.0,24.0,-100.00,SSE,153,0.0,0.0,86,0.00,,,0.00,,2013-02-17 05:12:00,
2013-02-16 23:22:00,28.0,24.0,-100.00,SSE,153,0.0,0.0,86,0.00,,,0.00,,2013-02-17 05:22:00,
2013-02-16 23:33:00,28.0,24.0,-100.00,SSE,153,0.0,0.0,86,0.00,,,0.00,,2013-02-17 05:33:00,
2013-02-16 23:42:00,28.0,24.0,-100.00,SSE,153,0.0,0.0,86,0.00,,,0.00,,2013-02-17 05:42:00,